Tuesday, September 02, 2014
09:15 UTC
  |  Log In   |  Register Free
Airport Search:

Henderson Field Airport
(KACZ)

Henderson Field Airport Diagram
No Airport Diagram Available

FAA data valid effective July 24, 2014 until September 18, 2014 (unless otherwise noted).

 
 
 
 
 
 
 
 
 
 
 
 
 
 

Current Aviation Weather for Henderson Field Airport (KACZ)

The most recent METAR observation for KDPL was updated at: 0835 UTC
METAR Summary (Translated METAR)
KDPL
020835Z AUTO 00000KT 5SM BR CLR 24/23 A3006 RMK AO2 T02350227
KCTZ
(18.9 nm SW from KDPL)
020834Z AUTO 00000KT 5SM BR CLR 24/24 A3006 RMK AO2
TAF Summary (Translated TAF)
KGSB
(20.4 nm NE from KDPL)
0204/0310 24006KT 9999 FEW230 QNH2999INS BECMG 0207/0208 VRB06KT 8000 BR SCT008 QNH3003INS TEMPO 0210/0213 BKN006 BECMG 0215/0216 23009KT 9999 NSW SCT055 QNH2997INS TEMPO 0221/0302 23015G30KT -TSRA BKN035CB BECMG 0302/0303 24009KT 9999 FEW050 SCT180 QNH2999INS TX35/0221Z TN22/0211Z
  Airport Weather Conditions for KACZ

Current weather conditions are
not available for ACZ


The nearest NOAA weather station
is at DPL, (17 nm NE from ACZ)
  
 Current Weather at DPL
75° F
Fair
North winds at 0.0 mph
DPL NOAA Radar

Pressure: 30.07 in
Humidity: 95%
Wind: Calm
Dew Point: 73.4°F
Visibility: 7.00 mi


Airport Weather Forecast for KACZ

Translated METAR and TAF for KDPL
Translated METAR for KDPL (0908 UTC 02 September 2014)
found at http://aviationweather.gov/adds/metars/
 
METAR text: KDPL 020855Z AUTO 00000KT 5SM BR CLR 23/22 A3006 RMK AO2 T02320224
Conditions at: KDPL (KENANSVILLE/DUPL, NC, US) observed 0855 UTC 02 September 2014
Temperature: 23.2°C (74°F)
Dewpoint: 22.4°C (72°F) [RH = 95%]
Pressure (altimeter): 30.06 inches Hg (1018.0 mb)
Winds: calm
Visibility: 5 miles (8 km)
Ceiling: at least 12,000 feet AGL
Clouds: sky clear below 12,000 feet AGL
Weather: BR  (mist)
Translated TAF for KDPL

There is no translated TAF available for this airport

Find All Airport Services Find A Hotel Find A Rental Car Find A Golf Course Find A Restaurant $100 Hamburger



FBO's on the Field
FBO Company Facility Photos Services Transportation Aviation Fuel Prices: Prices include tax
Catering Weather Repair Courtesy Rental Type 100LL JetA JetA+ MOGAS 8087
 
Henderson Field

This FBO has not yet been rated
FS:Phillips66
Last Updated: Aug-18
Login to update fuel prices
SS:
Contact Henderson FieldMore FBO Information
 
Add another FBO Facility Photos Catering Weather Repair Courtesy Rental Type 100LL JetA JetA+ MOGAS 8087
Services Transportation Aviation Fuel Prices: Prices include tax


GlobalAir.com Airport Resource Center model-print
model-print
model-print
model-print